Time;durP1;ratioP1;P1;durP2;ratioP2;P2;SDS_P1;SDS_P2;PMS_P1;PMS_P2;Temp;Humidity;BMP_temperature;BMP_pressure;BME280_temperature;BME280_humidity;BME280_pressure;Samples;Min_cycle;Max_cycle;Signal;HPM_P1;HPM_P2
2023/09/18 00:00:57;;;;;;;9.00;6.30;;;;;;;15.96;78.93;100795.25;5035726;28;20231;-69
2023/09/18 00:03:24;;;;;;;6.57;5.87;;;;;;;15.95;78.91;100791.06;5030095;28;20216;-68
2023/09/18 00:05:51;;;;;;;10.10;6.60;;;;;;;15.94;78.88;100789.53;5034149;28;20216;-69
2023/09/18 00:08:19;;;;;;;7.00;6.10;;;;;;;15.93;79.49;100786.09;5034285;28;20750;-68
2023/09/18 00:10:48;;;;;;;7.07;6.20;;;;;;;15.91;79.50;100780.34;5035793;28;20213;-68
2023/09/18 00:13:14;;;;;;;7.03;5.53;;;;;;;15.92;79.15;100778.44;5031089;28;20267;-69
2023/09/18 00:15:41;;;;;;;6.40;5.70;;;;;;;15.90;79.50;100776.16;5035088;28;20216;-70
2023/09/18 00:18:08;;;;;;;6.80;5.87;;;;;;;15.90;79.27;100773.50;5032087;28;20241;-69
2023/09/18 00:20:35;;;;;;;7.80;6.50;;;;;;;15.89;79.09;100779.94;5032209;28;20246;-68
2023/09/18 00:23:01;;;;;;;6.97;6.13;;;;;;;15.87;79.38;100771.53;5036598;28;21195;-68
2023/09/18 00:25:27;;;;;;;7.13;6.27;;;;;;;15.85;79.35;100763.16;5033395;28;20213;-70
2023/09/18 00:27:54;;;;;;;7.67;5.93;;;;;;;15.85;79.96;100771.13;5033515;28;20233;-69
2023/09/18 00:30:20;;;;;;;7.20;5.57;;;;;;;15.84;79.77;100766.91;4999794;28;20551;-68
2023/09/18 00:32:49;;;;;;;6.60;5.50;;;;;;;15.84;80.37;100766.16;5030529;28;20226;-68
2023/09/18 00:35:17;;;;;;;7.90;6.17;;;;;;;15.83;79.75;100762.72;5015421;28;20326;-68
2023/09/18 00:37:44;;;;;;;7.00;6.23;;;;;;;15.83;79.90;100756.63;5020201;28;20229;-68
2023/09/18 00:40:11;;;;;;;7.53;6.40;;;;;;;15.85;80.40;100752.50;5015484;28;20661;-69
2023/09/18 00:42:38;;;;;;;7.97;6.33;;;;;;;15.88;79.92;100757.09;5035710;28;20213;-68
2023/09/18 00:45:05;;;;;;;9.00;7.03;;;;;;;15.93;79.94;100740.81;5031553;28;20209;-69
2023/09/18 00:47:31;;;;;;;7.40;6.43;;;;;;;15.97;79.98;100736.31;5014455;28;21370;-69
2023/09/18 00:49:58;;;;;;;6.93;6.10;;;;;;;16.01;79.44;100744.34;5027579;28;20211;-69
2023/09/18 00:52:27;;;;;;;9.37;6.90;;;;;;;16.07;79.57;100737.59;5013089;28;20378;-68
2023/09/18 00:54:55;;;;;;;7.43;6.37;;;;;;;16.10;79.58;100742.22;5018655;28;20212;-68
2023/09/18 00:57:22;;;;;;;9.20;6.70;;;;;;;16.12;79.17;100727.41;5032287;28;21572;-69
2023/09/18 00:59:48;;;;;;;6.93;6.23;;;;;;;16.16;79.23;100728.25;5029469;28;20568;-69
2023/09/18 01:02:14;;;;;;;6.63;6.03;;;;;;;16.19;79.10;100732.09;5010732;28;20205;-69
2023/09/18 01:04:43;;;;;;;6.80;6.20;;;;;;;16.23;79.53;100715.00;5016552;28;20722;-68
2023/09/18 01:07:10;;;;;;;6.37;5.77;;;;;;;16.25;78.08;100714.66;5011850;28;20228;-69
2023/09/18 01:09:38;;;;;;;8.20;6.30;;;;;;;16.30;79.22;100719.69;5012966;28;21118;-68
2023/09/18 01:12:09;;;;;;;7.93;6.03;;;;;;;16.32;79.15;100712.09;5012936;28;20214;-69
2023/09/18 01:14:40;;;;;;;10.93;6.13;;;;;;;16.34;78.76;100718.59;5033015;28;20238;-68
2023/09/18 01:17:10;;;;;;;7.03;5.87;;;;;;;16.37;78.06;100715.22;5013994;28;20953;-68
2023/09/18 01:19:41;;;;;;;8.73;6.17;;;;;;;16.41;78.70;100718.72;5033525;28;20297;-69
2023/09/18 01:22:09;;;;;;;7.10;6.27;;;;;;;16.45;78.30;100716.88;5014807;28;20367;-69
2023/09/18 01:24:39;;;;;;;5.97;5.40;;;;;;;16.46;78.21;100718.41;5012242;28;22146;-70
2023/09/18 01:27:09;;;;;;;7.23;5.67;;;;;;;16.48;78.29;100716.16;5013726;28;20213;-68
2023/09/18 01:29:35;;;;;;;6.27;5.67;;;;;;;16.49;78.08;100711.56;5014603;28;20229;-68
2023/09/18 01:32:02;;;;;;;6.60;5.87;;;;;;;16.48;78.20;100710.81;5033374;28;20216;-70
2023/09/18 01:34:35;;;;;;;7.70;6.30;;;;;;;16.50;77.67;100713.13;5015852;28;20232;-69
2023/09/18 01:37:03;;;;;;;7.13;5.93;;;;;;;16.50;78.06;100705.13;5033472;28;20228;-69
2023/09/18 01:39:31;;;;;;;7.87;5.77;;;;;;;16.51;78.01;100696.75;5033231;28;20229;-69
2023/09/18 01:42:01;;;;;;;8.80;5.70;;;;;;;16.51;78.15;100693.34;5014460;28;20810;-69
2023/09/18 01:44:27;;;;;;;10.33;5.80;;;;;;;16.51;77.79;100691.44;5016345;28;21230;-68
2023/09/18 01:46:56;;;;;;;7.93;6.20;;;;;;;16.52;77.75;100694.88;5015447;28;20707;-68
2023/09/18 01:49:28;;;;;;;6.53;5.57;;;;;;;16.50;77.64;100697.88;5013092;28;20325;-69
2023/09/18 01:51:54;;;;;;;10.27;6.00;;;;;;;16.51;77.56;100698.66;5015406;28;20215;-69
2023/09/18 01:54:20;;;;;;;10.20;6.17;;;;;;;16.49;77.74;100693.69;5013198;28;21413;-69
2023/09/18 01:56:47;;;;;;;7.27;6.57;;;;;;;16.49;77.98;100687.59;5014510;28;20216;-69
2023/09/18 01:59:14;;;;;;;8.87;6.07;;;;;;;16.49;77.76;100690.25;5014991;28;21427;-68
2023/09/18 02:01:41;;;;;;;7.73;5.90;;;;;;;16.47;78.03;100685.31;5016574;28;20217;-70
2023/09/18 02:04:08;;;;;;;7.50;6.13;;;;;;;16.46;77.62;100675.00;5021803;28;20204;-69
2023/09/18 02:06:35;;;;;;;6.77;6.07;;;;;;;16.45;77.95;100670.81;5035725;28;20290;-67
2023/09/18 02:09:02;;;;;;;8.37;6.07;;;;;;;16.42;77.86;100663.50;5037960;28;21669;-68
2023/09/18 02:11:30;;;;;;;7.40;6.33;;;;;;;16.39;77.97;100678.34;5010976;28;20717;-70
2023/09/18 02:13:56;;;;;;;6.70;5.60;;;;;;;16.37;78.01;100682.47;5018156;28;20225;-71
2023/09/18 02:16:26;;;;;;;14.33;6.47;;;;;;;16.33;78.12;100677.09;5017061;28;20341;-70
2023/09/18 02:18:55;;;;;;;9.97;5.83;;;;;;;16.30;78.43;100664.47;5017001;28;20233;-70
2023/09/18 02:21:23;;;;;;;7.80;5.60;;;;;;;16.27;78.37;100667.88;5033191;28;20220;-71
2023/09/18 02:23:50;;;;;;;6.87;5.90;;;;;;;16.23;78.75;100660.94;5036728;28;20209;-70
2023/09/18 02:26:17;;;;;;;8.37;6.03;;;;;;;16.19;78.95;100665.47;5017384;28;20378;-70
2023/09/18 02:28:43;;;;;;;7.73;6.60;;;;;;;16.14;78.99;100658.53;5019706;28;20236;-71
2023/09/18 02:31:09;;;;;;;8.50;6.50;;;;;;;16.10;78.57;100662.31;5037369;28;20224;-70
2023/09/18 02:33:37;;;;;;;7.53;5.87;;;;;;;16.05;78.92;100666.03;5017678;28;20240;-70
2023/09/18 02:36:04;;;;;;;8.43;6.50;;;;;;;16.01;79.13;100659.91;5021072;28;20211;-71
2023/09/18 02:38:30;;;;;;;6.67;5.83;;;;;;;15.96;79.44;100657.53;5016088;28;20687;-70
2023/09/18 02:40:57;;;;;;;7.20;6.37;;;;;;;15.92;79.48;100651.41;5019090;28;20205;-70
2023/09/18 02:43:23;;;;;;;8.13;6.13;;;;;;;15.88;79.69;100647.16;5016240;28;21523;-70
2023/09/18 02:45:52;;;;;;;10.53;6.63;;;;;;;15.82;79.63;100636.03;5037704;28;20218;-70
2023/09/18 02:48:18;;;;;;;6.83;5.90;;;;;;;15.79;79.67;100642.06;5013981;28;20232;-70
2023/09/18 02:50:46;;;;;;;7.97;6.60;;;;;;;15.74;79.66;100637.03;5038747;28;20220;-70
2023/09/18 02:53:21;;;;;;;7.93;6.60;;;;;;;15.69;79.65;100628.59;5018425;28;20583;-70
2023/09/18 02:55:49;;;;;;;9.03;6.70;;;;;;;15.64;79.67;100632.34;5019021;28;20216;-70
2023/09/18 02:58:16;;;;;;;7.57;6.77;;;;;;;15.61;80.08;100643.69;5037042;28;20845;-72
2023/09/18 03:00:43;;;;;;;9.10;6.43;;;;;;;15.56;80.29;100621.94;5016726;28;20313;-70
2023/09/18 03:03:10;;;;;;;7.50;6.60;;;;;;;15.52;80.69;100627.19;5018382;28;20216;-71
2023/09/18 03:05:36;;;;;;;7.17;6.47;;;;;;;15.48;79.78;100628.28;5036996;28;20663;-70
2023/09/18 03:08:04;;;;;;;9.30;7.20;;;;;;;15.45;79.89;100619.13;5018879;28;20240;-70
2023/09/18 03:10:33;;;;;;;8.27;6.57;;;;;;;15.44;80.91;100616.81;5015152;28;20773;-71
2023/09/18 03:13:00;;;;;;;7.70;6.80;;;;;;;15.40;80.55;100610.66;5016990;28;20217;-71
2023/09/18 03:15:28;;;;;;;7.83;7.03;;;;;;;15.37;80.07;100598.06;5015879;28;22049;-69
2023/09/18 03:17:55;;;;;;;9.23;7.33;;;;;;;15.34;79.80;100599.56;5034287;28;20238;-70
2023/09/18 03:20:23;;;;;;;8.80;7.60;;;;;;;15.34;80.98;100596.13;5015745;28;20221;-71
2023/09/18 03:22:49;;;;;;;12.00;7.90;;;;;;;15.33;80.53;100594.56;5018709;28;20214;-70
2023/09/18 03:25:17;;;;;;;14.80;8.20;;;;;;;15.33;81.44;100591.91;5011878;28;21420;-70
2023/09/18 03:27:44;;;;;;;9.27;8.37;;;;;;;15.34;81.64;100599.56;5017309;28;20207;-70
2023/09/18 03:30:12;;;;;;;9.73;7.70;;;;;;;15.35;81.76;100600.31;5017696;28;20587;-70
2023/09/18 03:32:39;;;;;;;11.90;8.03;;;;;;;15.34;81.66;100604.09;5020233;28;20295;-70
2023/09/18 03:35:06;;;;;;;9.20;8.00;;;;;;;15.35;81.68;100595.75;5036801;28;20814;-71
2023/09/18 03:37:33;;;;;;;10.47;8.27;;;;;;;15.35;81.77;100595.75;5034038;28;20768;-70
2023/09/18 03:39:59;;;;;;;9.40;8.40;;;;;;;15.36;81.61;100593.88;5017549;28;21159;-70
2023/09/18 03:42:28;;;;;;;12.10;8.87;;;;;;;15.37;81.32;100587.44;5015878;28;20218;-71
2023/09/18 03:44:54;;;;;;;11.40;8.90;;;;;;;15.40;82.24;100590.13;5038100;28;20210;-71
2023/09/18 03:47:21;;;;;;;9.70;8.70;;;;;;;15.41;81.45;100591.66;5036670;28;21372;-70
2023/09/18 03:49:47;;;;;;;12.90;8.93;;;;;;;15.43;81.26;100586.00;5017208;28;20246;-70
2023/09/18 03:52:13;;;;;;;12.33;8.57;;;;;;;15.45;82.02;100581.06;5037547;28;20931;-72
2023/09/18 03:54:40;;;;;;;9.37;8.43;;;;;;;15.47;82.08;100589.50;5016438;28;20744;-71
2023/09/18 03:57:06;;;;;;;9.67;8.67;;;;;;;15.48;81.51;100588.34;5034352;28;20214;-70
2023/09/18 03:59:34;;;;;;;11.67;8.83;;;;;;;15.49;81.27;100584.56;5016862;28;21296;-71
2023/09/18 04:02:00;;;;;;;11.80;8.43;;;;;;;15.49;81.52;100574.69;5009887;28;20405;-70
2023/09/18 04:04:28;;;;;;;9.43;8.53;;;;;;;15.51;82.34;100571.66;5002150;28;20210;-70
2023/09/18 04:06:54;;;;;;;11.40;8.47;;;;;;;15.51;82.61;100566.34;5014947;28;20251;-71
2023/09/18 04:09:21;;;;;;;10.37;8.60;;;;;;;15.51;82.67;100566.34;5016604;28;20231;-69
2023/09/18 04:11:47;;;;;;;9.87;8.50;;;;;;;15.51;82.73;100563.69;5011022;28;20753;-70
2023/09/18 04:14:14;;;;;;;10.30;8.93;;;;;;;15.52;81.97;100565.22;5033866;28;20228;-72
2023/09/18 04:16:42;;;;;;;10.63;8.73;;;;;;;15.52;83.02;100559.91;5033263;28;20643;-70
2023/09/18 04:19:09;;;;;;;9.90;8.90;;;;;;;15.52;82.04;100557.25;5008517;28;20960;-71
2023/09/18 04:21:36;;;;;;;11.97;9.23;;;;;;;15.50;80.60;100560.25;5008652;28;20215;-71
2023/09/18 04:24:02;;;;;;;9.50;8.50;;;;;;;15.53;81.38;100556.13;5014188;28;20208;-70
2023/09/18 04:26:30;;;;;;;9.57;8.57;;;;;;;15.52;81.68;100558.00;5031254;28;21291;-70
2023/09/18 04:28:58;;;;;;;10.03;8.43;;;;;;;15.53;81.33;100548.13;5017895;28;20748;-71
2023/09/18 04:31:25;;;;;;;9.60;8.60;;;;;;;15.54;81.15;100555.75;5015818;28;20218;-70
2023/09/18 04:33:53;;;;;;;9.80;8.63;;;;;;;15.55;81.87;100553.84;5015109;28;20867;-70
2023/09/18 04:36:19;;;;;;;11.47;8.57;;;;;;;15.56;82.09;100552.72;5007163;28;20470;-71
2023/09/18 04:38:45;;;;;;;9.33;8.33;;;;;;;15.57;82.70;100547.03;5014429;28;20242;-71
2023/09/18 04:41:12;;;;;;;11.57;8.87;;;;;;;15.57;82.25;100549.72;5011061;28;20237;-70
2023/09/18 04:43:39;;;;;;;9.67;8.70;;;;;;;15.58;81.70;100545.16;5015212;28;20208;-70
2023/09/18 04:46:05;;;;;;;9.93;8.93;;;;;;;15.58;81.48;100551.25;5016194;28;20607;-70
2023/09/18 04:48:32;;;;;;;11.43;9.33;;;;;;;15.59;81.28;100552.78;5013855;28;20720;-69
2023/09/18 04:51:00;;;;;;;11.50;8.90;;;;;;;15.61;81.86;100544.44;5012642;28;20289;-70
2023/09/18 04:53:28;;;;;;;9.90;8.77;;;;;;;15.61;82.09;100539.09;5012838;28;20223;-69
2023/09/18 04:55:55;;;;;;;9.97;8.73;;;;;;;15.62;82.43;100541.41;5012403;28;20213;-69
2023/09/18 04:58:22;;;;;;;11.63;8.70;;;;;;;15.63;81.73;100542.19;5007588;28;21441;-69
2023/09/18 05:00:54;;;;;;;11.10;8.67;;;;;;;15.65;82.58;100543.38;5007273;28;20350;-71
2023/09/18 05:03:21;;;;;;;10.27;9.13;;;;;;;15.66;82.45;100542.25;5013431;28;20209;-70
2023/09/18 05:05:47;;;;;;;11.73;8.90;;;;;;;15.68;82.04;100539.97;5017170;28;20254;-70
2023/09/18 05:08:15;;;;;;;10.20;8.90;;;;;;;15.70;82.19;100540.41;5036104;28;20595;-70
2023/09/18 05:10:42;;;;;;;10.40;9.17;;;;;;;15.72;82.15;100546.13;5038054;28;20221;-69
2023/09/18 05:13:08;;;;;;;12.17;9.47;;;;;;;15.74;81.91;100538.53;5036273;28;20912;-70
2023/09/18 05:15:35;;;;;;;9.93;8.90;;;;;;;15.78;80.80;100542.00;5036806;28;20383;-70
2023/09/18 05:18:03;;;;;;;12.43;9.23;;;;;;;15.82;81.94;100528.75;5036420;28;20235;-71
2023/09/18 05:20:31;;;;;;;10.63;8.77;;;;;;;15.87;81.91;100537.19;5034358;28;20270;-69
2023/09/18 05:22:59;;;;;;;15.30;9.23;;;;;;;15.91;82.34;100538.00;5039556;28;20671;-70
2023/09/18 05:25:31;;;;;;;13.03;8.57;;;;;;;15.97;82.20;100541.09;5036947;28;21939;-71
2023/09/18 05:27:59;;;;;;;12.47;9.43;;;;;;;16.01;81.98;100540.03;5036237;28;20259;-70
2023/09/18 05:30:29;;;;;;;12.60;9.30;;;;;;;16.07;82.00;100532.47;5037622;28;20569;-70
2023/09/18 05:32:55;;;;;;;10.23;8.93;;;;;;;16.12;82.10;100532.94;5039104;28;20812;-70
2023/09/18 05:35:23;;;;;;;15.73;9.60;;;;;;;16.18;81.79;100526.16;5033794;28;20233;-70
2023/09/18 05:37:50;;;;;;;18.17;8.60;;;;;;;16.23;80.94;100528.50;5036163;28;20922;-70
2023/09/18 05:40:17;;;;;;;9.43;8.30;;;;;;;16.30;81.72;100522.50;5034554;28;20441;-70
2023/09/18 05:42:45;;;;;;;16.30;7.97;;;;;;;16.35;80.71;100520.25;5034645;28;20221;-71
2023/09/18 05:45:12;;;;;;;12.57;8.10;;;;;;;16.42;81.12;100525.69;5017300;28;20444;-70
2023/09/18 05:47:39;;;;;;;12.53;7.83;;;;;;;16.47;81.29;100520.03;5033413;28;20204;-70
2023/09/18 05:50:06;;;;;;;16.00;7.57;;;;;;;16.54;80.56;100516.66;5036109;28;20559;-71
2023/09/18 05:52:33;;;;;;;11.63;7.93;;;;;;;16.61;81.04;100519.41;5035600;28;20220;-71
2023/09/18 05:54:59;;;;;;;11.50;7.63;;;;;;;16.67;81.47;100510.69;5034609;28;20226;-70
2023/09/18 05:57:27;;;;;;;8.43;7.20;;;;;;;16.73;80.65;100517.25;5029907;28;20699;-70
2023/09/18 05:59:55;;;;;;;12.60;7.57;;;;;;;16.83;81.27;100513.13;5033024;28;20217;-71
2023/09/18 06:02:22;;;;;;;9.90;7.60;;;;;;;16.88;81.23;100508.22;5024019;28;20222;-70
2023/09/18 06:04:49;;;;;;;8.20;7.40;;;;;;;16.94;80.23;100506.75;5034836;28;20788;-70
2023/09/18 06:07:15;;;;;;;9.07;7.00;;;;;;;17.02;80.06;100504.91;5038956;28;20797;-70
2023/09/18 06:09:41;;;;;;;9.33;7.33;;;;;;;17.10;80.20;100490.47;5037184;28;20845;-70
2023/09/18 06:12:09;;;;;;;10.17;6.77;;;;;;;17.19;79.34;100496.25;5038837;28;21583;-70
2023/09/18 06:14:37;;;;;;;13.80;7.27;;;;;;;17.26;79.56;100491.75;5036732;28;20715;-71
2023/09/18 06:17:05;;;;;;;9.80;7.13;;;;;;;17.36;80.26;100490.25;5038048;28;20215;-71
2023/09/18 06:19:32;;;;;;;6.77;6.07;;;;;;;17.43;79.53;100490.34;5037392;28;21658;-70
2023/09/18 06:21:59;;;;;;;8.07;6.83;;;;;;;17.51;79.05;100486.56;5037568;28;20297;-70
2023/09/18 06:24:25;;;;;;;8.57;7.03;;;;;;;17.60;79.03;100484.34;5036271;28;20787;-70
2023/09/18 06:26:52;;;;;;;8.37;6.63;;;;;;;17.69;78.93;100479.44;5037802;28;20321;-70
2023/09/18 06:29:19;;;;;;;7.57;6.80;;;;;;;17.78;78.78;100480.59;5035579;28;20225;-70
2023/09/18 06:31:45;;;;;;;8.70;6.47;;;;;;;17.85;78.37;100475.28;5036002;28;20214;-71
2023/09/18 06:34:13;;;;;;;11.57;6.93;;;;;;;17.93;78.25;100476.06;5037459;28;20564;-69
2023/09/18 06:36:40;;;;;;;9.47;6.10;;;;;;;18.02;77.89;100471.16;5036050;28;21397;-70
2023/09/18 06:39:07;;;;;;;7.77;6.53;;;;;;;18.09;77.87;100477.28;5036642;28;20237;-70
2023/09/18 06:41:33;;;;;;;10.13;6.33;;;;;;;18.18;77.80;100467.00;5034899;28;20879;-68
2023/09/18 06:44:02;;;;;;;14.57;6.40;;;;;;;18.28;77.44;100466.25;5017952;28;20214;-70
2023/09/18 06:46:28;;;;;;;6.73;6.00;;;;;;;18.38;77.14;100462.09;5035931;28;20206;-70
2023/09/18 06:48:56;;;;;;;6.73;6.03;;;;;;;18.48;77.07;100462.09;5036692;28;20606;-70
2023/09/18 06:51:24;;;;;;;7.63;6.17;;;;;;;18.56;76.71;100449.50;5038627;28;20269;-70
2023/09/18 06:53:50;;;;;;;13.53;6.13;;;;;;;18.63;76.68;100449.53;5034456;28;20710;-69
2023/09/18 06:56:16;;;;;;;7.87;6.00;;;;;;;18.70;76.41;100450.28;5035633;28;21328;-70
2023/09/18 06:58:43;;;;;;;11.63;6.20;;;;;;;18.77;76.28;100452.94;5048679;22;20245;-72
2023/09/18 07:01:09;;;;;;;7.53;6.33;;;;;;;18.84;76.05;100452.94;5022853;28;20215;-72
2023/09/18 07:03:36;;;;;;;6.67;5.97;;;;;;;18.91;76.24;100444.91;5017434;28;20453;-72
2023/09/18 07:06:04;;;;;;;7.93;6.20;;;;;;;18.99;75.86;100453.72;5021727;28;20206;-74
2023/09/18 07:08:32;;;;;;;8.37;6.00;;;;;;;19.07;75.57;100445.28;5001149;28;20711;-75
2023/09/18 07:10:58;;;;;;;9.73;6.27;;;;;;;19.15;75.56;100438.00;5013839;28;20218;-75
2023/09/18 07:13:25;;;;;;;8.57;6.00;;;;;;;19.20;75.51;100432.25;5017119;28;21238;-75
2023/09/18 07:15:51;;;;;;;6.03;5.30;;;;;;;19.29;75.26;100433.41;5015255;28;20598;-74
2023/09/18 07:18:18;;;;;;;6.43;5.73;;;;;;;19.41;74.79;100430.28;5018309;28;20213;-75
2023/09/18 07:20:44;;;;;;;6.03;5.40;;;;;;;19.52;74.63;100427.59;5015730;28;20215;-75
2023/09/18 07:23:11;;;;;;;8.83;5.27;;;;;;;19.63;74.59;100423.72;5018120;28;20202;-75
2023/09/18 07:25:39;;;;;;;10.77;5.77;;;;;;;19.76;74.48;100430.16;5015766;28;20770;-75
2023/09/18 07:28:06;;;;;;;6.80;5.47;;;;;;;19.87;73.99;100425.50;5017242;28;20206;-75
2023/09/18 07:30:34;;;;;;;5.93;5.33;;;;;;;20.01;73.46;100438.84;5017383;28;20210;-75
2023/09/18 07:33:00;;;;;;;5.60;5.10;;;;;;;20.15;72.91;100428.06;5016479;28;20439;-75
2023/09/18 07:35:27;;;;;;;6.07;5.23;;;;;;;20.25;72.97;100423.78;5013941;28;20226;-75
2023/09/18 07:37:53;;;;;;;6.83;5.20;;;;;;;20.36;72.24;100413.75;5016601;28;20214;-75
2023/09/18 07:40:21;;;;;;;5.93;5.17;;;;;;;20.46;71.90;100418.25;4999144;28;20231;-75
2023/09/18 07:42:48;;;;;;;6.13;4.77;;;;;;;20.57;71.17;100417.03;5015431;28;20198;-75
2023/09/18 07:45:15;;;;;;;5.30;4.80;;;;;;;20.70;71.60;100414.63;5017044;28;20614;-72
2023/09/18 07:47:41;;;;;;;6.03;4.60;;;;;;;20.83;71.41;100407.59;5014478;28;20416;-74
2023/09/18 07:50:08;;;;;;;4.90;4.13;;;;;;;20.95;70.18;100404.47;5014963;28;20230;-73
2023/09/18 07:52:35;;;;;;;5.93;4.63;;;;;;;21.07;70.62;100403.94;5016845;28;20202;-73
2023/09/18 07:55:02;;;;;;;4.93;4.47;;;;;;;21.19;69.65;100406.09;5014831;28;20697;-73
2023/09/18 07:57:31;;;;;;;5.67;4.93;;;;;;;21.29;69.97;100400.63;5016306;28;20912;-73
2023/09/18 08:00:00;;;;;;;5.70;4.90;;;;;;;21.41;69.21;100397.41;5015025;28;20245;-73
2023/09/18 08:02:38;;;;;;;4.90;4.37;;;;;;;21.55;68.38;100389.19;5014354;28;20588;-73
2023/09/18 08:05:05;;;;;;;8.13;4.57;;;;;;;21.67;67.87;100394.00;5008330;28;20195;-73
2023/09/18 08:07:31;;;;;;;10.57;4.67;;;;;;;21.77;67.49;100384.28;5014079;28;21041;-73
2023/09/18 08:09:58;;;;;;;6.50;4.53;;;;;;;21.88;68.65;100388.38;5010968;28;20226;-73
2023/09/18 08:12:25;;;;;;;7.20;4.50;;;;;;;22.06;65.86;100391.56;4999416;28;20841;-73
2023/09/18 08:14:51;;;;;;;8.03;4.30;;;;;;;22.14;66.50;100386.84;5013584;28;20877;-73
2023/09/18 08:17:19;;;;;;;5.37;4.17;;;;;;;22.21;66.61;100398.28;5016022;28;21237;-73
2023/09/18 08:19:45;;;;;;;6.25;3.97;;;;;;;22.35;65.02;100391.91;5009146;28;21176;-73
2023/09/18 08:22:15;;;;;;;4.15;3.65;;;;;;;22.46;64.55;100384.44;5013567;28;21156;-73
2023/09/18 08:24:42;;;;;;;4.93;4.27;;;;;;;22.55;65.60;100390.06;5015029;28;20210;-73
2023/09/18 08:27:09;;;;;;;4.25;3.80;;;;;;;22.71;62.37;100396.31;5015025;28;20285;-73
2023/09/18 08:29:35;;;;;;;5.15;4.10;;;;;;;22.77;63.81;100388.53;5013357;28;20537;-73
2023/09/18 08:32:01;;;;;;;4.40;4.00;;;;;;;22.93;63.88;100394.00;5014855;28;20874;-73
2023/09/18 08:34:29;;;;;;;4.22;3.58;;;;;;;23.00;62.11;100397.34;5013707;28;20217;-73
2023/09/18 08:36:55;;;;;;;4.10;3.70;;;;;;;23.09;61.86;100386.78;5014234;28;20226;-73
2023/09/18 08:39:22;;;;;;;4.38;3.97;;;;;;;23.20;61.37;100389.28;4994426;28;20230;-73
2023/09/18 08:41:54;;;;;;;5.88;3.53;;;;;;;23.29;62.31;100390.25;5015417;28;20669;-73
2023/09/18 08:44:26;;;;;;;4.55;3.50;;;;;;;23.43;59.38;100381.13;5006562;28;20591;-72
2023/09/18 08:46:52;;;;;;;6.50;4.03;;;;;;;23.51;60.32;100374.41;5013274;28;20723;-72
2023/09/18 08:49:19;;;;;;;5.40;3.60;;;;;;;23.62;59.59;100372.25;5014746;28;20302;-73
2023/09/18 08:51:48;;;;;;;4.63;3.60;;;;;;;23.68;58.59;100360.56;5014418;28;20202;-73
2023/09/18 08:54:15;;;;;;;4.72;3.45;;;;;;;23.80;57.46;100357.19;5015859;28;20209;-73
2023/09/18 08:56:42;;;;;;;3.90;3.55;;;;;;;23.86;57.98;100365.56;4996152;28;20233;-73
2023/09/18 08:59:08;;;;;;;6.78;3.80;;;;;;;23.96;59.18;100351.09;5013969;28;21422;-73
2023/09/18 09:01:34;;;;;;;4.20;3.53;;;;;;;24.03;59.53;100342.84;4991433;28;20219;-73
2023/09/18 09:04:01;;;;;;;6.50;3.33;;;;;;;24.16;57.40;100337.53;5013688;28;20207;-72
2023/09/18 09:06:27;;;;;;;4.60;3.30;;;;;;;24.26;56.29;100334.56;4996477;28;20427;-73
2023/09/18 09:08:56;;;;;;;7.68;3.67;;;;;;;24.37;57.55;100342.41;5008901;28;20237;-73
2023/09/18 09:11:22;;;;;;;5.57;3.50;;;;;;;24.48;55.64;100340.19;5010794;28;20314;-73
2023/09/18 09:14:08;;;;;;;7.20;3.75;;;;;;;24.58;53.87;100345.34;5011408;28;20787;-73
2023/09/18 09:16:35;;;;;;;5.32;3.58;;;;;;;24.65;56.47;100336.31;5010601;28;20226;-73
2023/09/18 09:19:01;;;;;;;7.43;3.47;;;;;;;24.70;54.56;100335.78;5010774;28;20814;-73
2023/09/18 09:21:39;;;;;;;4.40;3.72;;;;;;;24.79;54.61;100331.28;4996788;28;21436;-72
2023/09/18 09:24:07;;;;;;;6.55;3.90;;;;;;;24.88;54.74;100336.84;5012028;28;20206;-73
2023/09/18 09:26:35;;;;;;;4.65;3.25;;;;;;;25.00;56.05;100330.69;5012570;28;20668;-73
2023/09/18 09:29:17;;;;;;;3.95;3.58;;;;;;;25.13;52.81;100330.72;5011477;28;21708;-72
2023/09/18 09:31:44;;;;;;;5.32;3.35;;;;;;;25.22;51.76;100322.75;5010335;28;20214;-73
2023/09/18 09:34:10;;;;;;;6.43;3.60;;;;;;;25.30;53.04;100324.84;5012438;28;20711;-73
2023/09/18 09:36:37;;;;;;;6.45;3.35;;;;;;;25.43;54.10;100314.06;5014030;28;20226;-73
2023/09/18 09:39:05;;;;;;;3.70;3.38;;;;;;;25.52;51.64;100312.22;5009960;28;20967;-73
2023/09/18 09:41:33;;;;;;;3.95;3.47;;;;;;;25.62;53.75;100302.25;4994356;28;20453;-73
2023/09/18 09:44:00;;;;;;;5.53;3.55;;;;;;;25.73;53.57;100291.84;5009099;28;20668;-73
2023/09/18 09:46:27;;;;;;;6.13;3.10;;;;;;;25.89;49.21;100278.97;4994619;28;20672;-73
2023/09/18 09:49:01;;;;;;;4.15;3.30;;;;;;;25.98;51.43;100273.69;5012045;28;20276;-73
2023/09/18 09:51:28;;;;;;;6.45;3.40;;;;;;;26.09;51.32;100274.09;5013640;28;20229;-73
2023/09/18 09:53:54;;;;;;;4.03;3.40;;;;;;;26.23;50.57;100275.56;4990481;28;21227;-73
2023/09/18 09:56:21;;;;;;;4.35;3.13;;;;;;;26.35;47.67;100274.75;4985333;28;20227;-72
2023/09/18 09:59:04;;;;;;;3.38;2.92;;;;;;;26.41;50.52;100281.16;5003593;28;20663;-73
2023/09/18 10:01:32;;;;;;;4.65;3.15;;;;;;;26.47;47.58;100277.41;5013318;28;20214;-73
2023/09/18 10:04:01;;;;;;;3.97;2.65;;;;;;;26.51;49.30;100280.00;5012168;28;20210;-72
2023/09/18 10:06:31;;;;;;;4.45;3.15;;;;;;;26.56;49.24;100279.47;5013200;28;20331;-73
2023/09/18 10:08:58;;;;;;;5.45;3.05;;;;;;;26.58;46.67;100266.25;5011734;28;20582;-73
2023/09/18 10:11:26;;;;;;;3.33;2.88;;;;;;;26.63;48.02;100260.25;5011352;28;20210;-73
2023/09/18 10:13:59;;;;;;;6.88;3.50;;;;;;;26.69;46.93;100264.69;5012572;28;20608;-72
2023/09/18 10:16:31;;;;;;;4.40;3.45;;;;;;;26.79;48.04;100276.31;4995357;28;20672;-73
2023/09/18 10:19:33;;;;;;;3.78;2.92;;;;;;;26.90;47.46;100273.97;4996277;28;20226;-73
2023/09/18 10:22:11;;;;;;;5.25;3.25;;;;;;;27.03;44.98;100266.53;5014025;28;20217;-72
2023/09/18 10:24:38;;;;;;;6.70;3.40;;;;;;;27.07;46.39;100265.19;5012086;28;20636;-72
2023/09/18 10:27:06;;;;;;;3.38;3.03;;;;;;;27.12;45.56;100272.75;5004934;28;20226;-72
2023/09/18 10:29:35;;;;;;;6.45;3.30;;;;;;;27.17;47.19;100271.41;5013453;28;20230;-72
2023/09/18 10:32:05;;;;;;;4.20;3.20;;;;;;;27.26;46.58;100261.41;4992634;28;20203;-72
2023/09/18 10:34:33;;;;;;;5.22;3.58;;;;;;;27.36;46.51;100259.47;5013390;28;20286;-72
2023/09/18 10:37:01;;;;;;;4.40;3.00;;;;;;;27.46;45.84;100259.06;5017780;28;20222;-72
2023/09/18 10:39:29;;;;;;;4.85;3.30;;;;;;;27.53;48.33;100250.66;5017755;28;20451;-73
2023/09/18 10:41:57;;;;;;;5.28;3.28;;;;;;;27.59;46.34;100258.94;5018401;28;20745;-72
2023/09/18 10:44:24;;;;;;;3.70;3.40;;;;;;;27.63;45.60;100260.34;5017650;28;20213;-72
2023/09/18 10:46:52;;;;;;;4.10;3.33;;;;;;;27.67;45.73;100263.66;5018034;28;21175;-73
2023/09/18 10:49:21;;;;;;;6.05;3.53;;;;;;;27.77;45.11;100261.72;4984575;28;20552;-73
2023/09/18 10:51:48;;;;;;;4.97;3.13;;;;;;;27.84;47.21;100258.72;5016940;28;20198;-72
2023/09/18 10:54:16;;;;;;;3.22;2.92;;;;;;;27.91;45.02;100261.19;4994203;28;20240;-72
2023/09/18 10:56:43;;;;;;;4.70;3.78;;;;;;;27.98;44.15;100258.16;5015919;28;20744;-73
2023/09/18 10:59:10;;;;;;;5.95;3.42;;;;;;;28.03;44.82;100244.72;5017478;28;20230;-73
2023/09/18 11:01:37;;;;;;;3.90;3.00;;;;;;;28.10;44.21;100244.44;5017341;28;20199;-73
2023/09/18 11:04:07;;;;;;;5.10;3.30;;;;;;;28.18;45.22;100242.19;5001323;28;20210;-73
2023/09/18 11:07:05;;;;;;;4.05;3.30;;;;;;;28.23;42.73;100250.47;5018794;28;20329;-72
2023/09/18 11:09:40;;;;;;;3.63;3.25;;;;;;;28.24;43.15;100252.00;5017823;28;20555;-73
2023/09/18 11:12:08;;;;;;;4.32;3.50;;;;;;;28.25;44.30;100256.22;5018008;28;21386;-72
2023/09/18 11:14:46;;;;;;;3.85;3.05;;;;;;;28.26;43.63;100259.69;5013870;28;20345;-73
2023/09/18 11:17:33;;;;;;;5.78;3.58;;;;;;;28.31;43.07;100257.13;5014720;28;20233;-73
2023/09/18 11:20:12;;;;;;;5.25;3.25;;;;;;;28.35;43.87;100257.75;4995708;28;20268;-73
2023/09/18 11:22:46;;;;;;;3.30;2.95;;;;;;;28.38;43.41;100250.66;5011591;28;20255;-72
2023/09/18 11:25:41;;;;;;;3.88;3.10;;;;;;;28.40;43.91;100249.00;5013935;28;20214;-72
2023/09/18 11:28:08;;;;;;;5.35;3.15;;;;;;;28.39;45.48;100252.19;5016238;28;20213;-73